sensor_id;sensor_type;location;lat;lon;timestamp;P1;durP1;ratioP1;P2;durP2;ratioP2
76896;SDS011;65856;52.178;21.176;2023-09-19T00:00:45;10.20;;;7.60;;
76896;SDS011;65856;52.178;21.176;2023-09-19T00:03:15;10.70;;;7.80;;
76896;SDS011;65856;52.178;21.176;2023-09-19T00:05:41;11.60;;;8.10;;
76896;SDS011;65856;52.178;21.176;2023-09-19T00:08:10;10.20;;;8.10;;
76896;SDS011;65856;52.178;21.176;2023-09-19T00:10:36;14.00;;;8.60;;
76896;SDS011;65856;52.178;21.176;2023-09-19T00:13:04;9.90;;;7.90;;
76896;SDS011;65856;52.178;21.176;2023-09-19T00:15:38;12.90;;;8.30;;
76896;SDS011;65856;52.178;21.176;2023-09-19T00:18:07;11.20;;;8.30;;
76896;SDS011;65856;52.178;21.176;2023-09-19T00:20:37;11.70;;;8.50;;
76896;SDS011;65856;52.178;21.176;2023-09-19T00:23:04;11.60;;;8.30;;
76896;SDS011;65856;52.178;21.176;2023-09-19T00:25:30;10.80;;;8.50;;
76896;SDS011;65856;52.178;21.176;2023-09-19T00:27:57;10.70;;;8.00;;
76896;SDS011;65856;52.178;21.176;2023-09-19T00:30:23;11.50;;;8.40;;
76896;SDS011;65856;52.178;21.176;2023-09-19T00:32:50;11.90;;;8.20;;
76896;SDS011;65856;52.178;21.176;2023-09-19T00:35:22;10.00;;;8.10;;
76896;SDS011;65856;52.178;21.176;2023-09-19T00:40:18;10.20;;;7.90;;
76896;SDS011;65856;52.178;21.176;2023-09-19T00:42:46;12.20;;;8.10;;
76896;SDS011;65856;52.178;21.176;2023-09-19T00:45:15;9.90;;;7.90;;
76896;SDS011;65856;52.178;21.176;2023-09-19T00:47:44;11.40;;;8.30;;
76896;SDS011;65856;52.178;21.176;2023-09-19T00:50:15;14.00;;;8.50;;
76896;SDS011;65856;52.178;21.176;2023-09-19T00:52:48;12.50;;;8.20;;
76896;SDS011;65856;52.178;21.176;2023-09-19T00:55:16;10.80;;;8.10;;
76896;SDS011;65856;52.178;21.176;2023-09-19T00:57:45;11.00;;;8.30;;
76896;SDS011;65856;52.178;21.176;2023-09-19T01:00:12;10.90;;;8.10;;
76896;SDS011;65856;52.178;21.176;2023-09-19T01:02:42;12.20;;;8.50;;
76896;SDS011;65856;52.178;21.176;2023-09-19T01:05:09;11.30;;;8.30;;
76896;SDS011;65856;52.178;21.176;2023-09-19T01:07:36;10.40;;;8.10;;
76896;SDS011;65856;52.178;21.176;2023-09-19T01:10:06;11.40;;;8.00;;
76896;SDS011;65856;52.178;21.176;2023-09-19T01:15:49;11.60;;;8.10;;
76896;SDS011;65856;52.178;21.176;2023-09-19T01:21:26;15.00;;;7.90;;
76896;SDS011;65856;52.178;21.176;2023-09-19T01:24:16;11.50;;;8.00;;
76896;SDS011;65856;52.178;21.176;2023-09-19T01:27:30;10.10;;;7.80;;
76896;SDS011;65856;52.178;21.176;2023-09-19T01:30:33;10.40;;;8.30;;
76896;SDS011;65856;52.178;21.176;2023-09-19T01:33:06;14.70;;;8.30;;
76896;SDS011;65856;52.178;21.176;2023-09-19T01:35:33;13.60;;;8.50;;
76896;SDS011;65856;52.178;21.176;2023-09-19T01:37:59;13.50;;;9.00;;
76896;SDS011;65856;52.178;21.176;2023-09-19T01:40:25;10.90;;;8.30;;
76896;SDS011;65856;52.178;21.176;2023-09-19T01:52:14;11.60;;;7.90;;
76896;SDS011;65856;52.178;21.176;2023-09-19T01:54:52;11.30;;;8.70;;
76896;SDS011;65856;52.178;21.176;2023-09-19T01:57:49;11.50;;;8.30;;
76896;SDS011;65856;52.178;21.176;2023-09-19T02:00:27;12.30;;;8.40;;
76896;SDS011;65856;52.178;21.176;2023-09-19T02:02:55;12.40;;;8.10;;
76896;SDS011;65856;52.178;21.176;2023-09-19T02:05:24;12.20;;;8.90;;
76896;SDS011;65856;52.178;21.176;2023-09-19T02:07:51;12.60;;;8.60;;
76896;SDS011;65856;52.178;21.176;2023-09-19T02:10:18;10.50;;;8.50;;
76896;SDS011;65856;52.178;21.176;2023-09-19T02:12:44;12.50;;;8.60;;
76896;SDS011;65856;52.178;21.176;2023-09-19T02:15:10;11.70;;;8.70;;
76896;SDS011;65856;52.178;21.176;2023-09-19T02:17:36;12.20;;;8.80;;
76896;SDS011;65856;52.178;21.176;2023-09-19T02:20:03;10.60;;;8.20;;
76896;SDS011;65856;52.178;21.176;2023-09-19T02:22:36;13.80;;;9.00;;
76896;SDS011;65856;52.178;21.176;2023-09-19T02:25:02;12.00;;;8.20;;
76896;SDS011;65856;52.178;21.176;2023-09-19T02:27:32;13.60;;;8.50;;
76896;SDS011;65856;52.178;21.176;2023-09-19T02:29:58;11.90;;;8.30;;
76896;SDS011;65856;52.178;21.176;2023-09-19T02:32:23;11.10;;;8.50;;
76896;SDS011;65856;52.178;21.176;2023-09-19T02:34:48;13.30;;;8.80;;
76896;SDS011;65856;52.178;21.176;2023-09-19T02:37:17;12.10;;;8.80;;
76896;SDS011;65856;52.178;21.176;2023-09-19T02:39:44;15.00;;;8.70;;
76896;SDS011;65856;52.178;21.176;2023-09-19T02:42:09;13.90;;;8.30;;
76896;SDS011;65856;52.178;21.176;2023-09-19T02:44:35;10.90;;;8.40;;
76896;SDS011;65856;52.178;21.176;2023-09-19T02:47:00;11.10;;;8.70;;
76896;SDS011;65856;52.178;21.176;2023-09-19T02:49:26;11.60;;;8.40;;
76896;SDS011;65856;52.178;21.176;2023-09-19T02:51:51;12.30;;;9.40;;
76896;SDS011;65856;52.178;21.176;2023-09-19T02:54:17;13.70;;;8.80;;
76896;SDS011;65856;52.178;21.176;2023-09-19T02:56:43;11.90;;;8.60;;
76896;SDS011;65856;52.178;21.176;2023-09-19T02:59:09;12.80;;;8.10;;
76896;SDS011;65856;52.178;21.176;2023-09-19T03:01:38;11.80;;;7.90;;
76896;SDS011;65856;52.178;21.176;2023-09-19T03:04:04;13.20;;;8.80;;
76896;SDS011;65856;52.178;21.176;2023-09-19T03:06:31;11.80;;;9.20;;
76896;SDS011;65856;52.178;21.176;2023-09-19T03:08:56;13.50;;;8.70;;
76896;SDS011;65856;52.178;21.176;2023-09-19T03:11:24;11.80;;;8.50;;
76896;SDS011;65856;52.178;21.176;2023-09-19T03:13:52;13.70;;;8.50;;
76896;SDS011;65856;52.178;21.176;2023-09-19T03:16:19;12.10;;;8.40;;
76896;SDS011;65856;52.178;21.176;2023-09-19T03:18:48;10.90;;;8.20;;
76896;SDS011;65856;52.178;21.176;2023-09-19T03:21:15;12.30;;;8.50;;
76896;SDS011;65856;52.178;21.176;2023-09-19T03:23:42;13.00;;;8.90;;
76896;SDS011;65856;52.178;21.176;2023-09-19T03:26:11;14.50;;;9.10;;
76896;SDS011;65856;52.178;21.176;2023-09-19T03:28:38;10.30;;;8.30;;
76896;SDS011;65856;52.178;21.176;2023-09-19T03:31:05;11.70;;;8.50;;
76896;SDS011;65856;52.178;21.176;2023-09-19T03:33:31;11.10;;;8.80;;
76896;SDS011;65856;52.178;21.176;2023-09-19T03:35:58;12.40;;;8.40;;
76896;SDS011;65856;52.178;21.176;2023-09-19T03:38:25;10.90;;;8.20;;
76896;SDS011;65856;52.178;21.176;2023-09-19T03:40:51;12.80;;;8.70;;
76896;SDS011;65856;52.178;21.176;2023-09-19T03:43:16;14.80;;;9.00;;
76896;SDS011;65856;52.178;21.176;2023-09-19T03:45:42;12.10;;;8.40;;
76896;SDS011;65856;52.178;21.176;2023-09-19T03:48:09;12.30;;;8.60;;
76896;SDS011;65856;52.178;21.176;2023-09-19T03:50:35;11.90;;;8.60;;
76896;SDS011;65856;52.178;21.176;2023-09-19T03:53:01;10.80;;;8.40;;
76896;SDS011;65856;52.178;21.176;2023-09-19T03:55:27;12.70;;;8.60;;
76896;SDS011;65856;52.178;21.176;2023-09-19T03:57:53;12.50;;;8.30;;
76896;SDS011;65856;52.178;21.176;2023-09-19T04:00:19;11.80;;;8.60;;
76896;SDS011;65856;52.178;21.176;2023-09-19T04:02:47;11.80;;;8.60;;
76896;SDS011;65856;52.178;21.176;2023-09-19T04:05:13;13.70;;;8.70;;
76896;SDS011;65856;52.178;21.176;2023-09-19T04:07:39;10.00;;;7.80;;
76896;SDS011;65856;52.178;21.176;2023-09-19T04:10:05;13.80;;;8.60;;
76896;SDS011;65856;52.178;21.176;2023-09-19T04:12:34;12.50;;;8.70;;
76896;SDS011;65856;52.178;21.176;2023-09-19T04:14:59;11.10;;;8.40;;
76896;SDS011;65856;52.178;21.176;2023-09-19T04:17:25;13.20;;;8.70;;
76896;SDS011;65856;52.178;21.176;2023-09-19T04:19:51;14.40;;;8.50;;
76896;SDS011;65856;52.178;21.176;2023-09-19T04:22:16;11.70;;;8.40;;
76896;SDS011;65856;52.178;21.176;2023-09-19T04:24:42;15.40;;;8.60;;
76896;SDS011;65856;52.178;21.176;2023-09-19T04:27:07;17.60;;;9.00;;
76896;SDS011;65856;52.178;21.176;2023-09-19T04:29:35;12.30;;;9.40;;
76896;SDS011;65856;52.178;21.176;2023-09-19T04:32:00;11.00;;;8.80;;
76896;SDS011;65856;52.178;21.176;2023-09-19T04:34:26;12.30;;;8.50;;
76896;SDS011;65856;52.178;21.176;2023-09-19T04:36:52;14.20;;;9.30;;
76896;SDS011;65856;52.178;21.176;2023-09-19T04:39:18;14.20;;;8.50;;
76896;SDS011;65856;52.178;21.176;2023-09-19T04:41:44;11.20;;;8.30;;
76896;SDS011;65856;52.178;21.176;2023-09-19T04:44:10;10.60;;;8.50;;
76896;SDS011;65856;52.178;21.176;2023-09-19T04:46:35;12.30;;;8.40;;
76896;SDS011;65856;52.178;21.176;2023-09-19T04:49:01;13.50;;;8.50;;
76896;SDS011;65856;52.178;21.176;2023-09-19T04:51:27;12.20;;;8.30;;
76896;SDS011;65856;52.178;21.176;2023-09-19T04:53:58;13.70;;;8.80;;
76896;SDS011;65856;52.178;21.176;2023-09-19T04:56:24;12.20;;;8.60;;
76896;SDS011;65856;52.178;21.176;2023-09-19T04:58:49;14.00;;;9.20;;
76896;SDS011;65856;52.178;21.176;2023-09-19T05:01:15;14.20;;;8.20;;
76896;SDS011;65856;52.178;21.176;2023-09-19T05:03:41;16.00;;;8.80;;
76896;SDS011;65856;52.178;21.176;2023-09-19T05:06:07;13.50;;;8.20;;
76896;SDS011;65856;52.178;21.176;2023-09-19T05:08:33;11.90;;;8.40;;
76896;SDS011;65856;52.178;21.176;2023-09-19T05:10:58;10.50;;;8.30;;
76896;SDS011;65856;52.178;21.176;2023-09-19T05:13:27;12.00;;;8.30;;
76896;SDS011;65856;52.178;21.176;2023-09-19T05:15:52;13.70;;;8.50;;
76896;SDS011;65856;52.178;21.176;2023-09-19T05:18:18;14.80;;;8.70;;
76896;SDS011;65856;52.178;21.176;2023-09-19T05:20:43;12.20;;;8.40;;
76896;SDS011;65856;52.178;21.176;2023-09-19T05:23:09;13.40;;;8.00;;
76896;SDS011;65856;52.178;21.176;2023-09-19T05:25:38;12.60;;;8.10;;
76896;SDS011;65856;52.178;21.176;2023-09-19T05:28:06;13.00;;;8.00;;
76896;SDS011;65856;52.178;21.176;2023-09-19T05:30:35;11.60;;;8.50;;
76896;SDS011;65856;52.178;21.176;2023-09-19T05:33:02;13.80;;;8.20;;
76896;SDS011;65856;52.178;21.176;2023-09-19T05:35:29;12.90;;;8.40;;
76896;SDS011;65856;52.178;21.176;2023-09-19T05:37:56;15.30;;;9.10;;
76896;SDS011;65856;52.178;21.176;2023-09-19T05:40:23;12.00;;;7.90;;
76896;SDS011;65856;52.178;21.176;2023-09-19T05:42:50;13.90;;;8.40;;
76896;SDS011;65856;52.178;21.176;2023-09-19T05:45:16;15.50;;;8.90;;
76896;SDS011;65856;52.178;21.176;2023-09-19T05:50:21;11.60;;;7.70;;
76896;SDS011;65856;52.178;21.176;2023-09-19T05:52:54;12.60;;;8.70;;
76896;SDS011;65856;52.178;21.176;2023-09-19T05:55:21;16.00;;;8.50;;
76896;SDS011;65856;52.178;21.176;2023-09-19T05:57:53;12.30;;;8.40;;
76896;SDS011;65856;52.178;21.176;2023-09-19T06:00:20;14.40;;;8.20;;
76896;SDS011;65856;52.178;21.176;2023-09-19T06:02:54;12.50;;;8.30;;
76896;SDS011;65856;52.178;21.176;2023-09-19T06:05:26;13.30;;;8.70;;
76896;SDS011;65856;52.178;21.176;2023-09-19T06:07:53;11.50;;;8.60;;
76896;SDS011;65856;52.178;21.176;2023-09-19T06:10:19;15.40;;;8.70;;
76896;SDS011;65856;52.178;21.176;2023-09-19T06:12:48;14.10;;;8.20;;
76896;SDS011;65856;52.178;21.176;2023-09-19T06:15:15;11.50;;;8.10;;
76896;SDS011;65856;52.178;21.176;2023-09-19T06:17:51;13.40;;;8.40;;
76896;SDS011;65856;52.178;21.176;2023-09-19T06:20:23;12.50;;;8.10;;
76896;SDS011;65856;52.178;21.176;2023-09-19T06:22:49;12.70;;;8.20;;
76896;SDS011;65856;52.178;21.176;2023-09-19T06:25:16;11.10;;;7.70;;
76896;SDS011;65856;52.178;21.176;2023-09-19T06:27:53;13.20;;;7.70;;
76896;SDS011;65856;52.178;21.176;2023-09-19T06:30:20;10.60;;;7.80;;
76896;SDS011;65856;52.178;21.176;2023-09-19T06:32:48;11.40;;;7.50;;
76896;SDS011;65856;52.178;21.176;2023-09-19T06:35:15;11.10;;;7.90;;
76896;SDS011;65856;52.178;21.176;2023-09-19T06:37:42;12.10;;;8.00;;
76896;SDS011;65856;52.178;21.176;2023-09-19T06:40:12;12.30;;;8.00;;
76896;SDS011;65856;52.178;21.176;2023-09-19T06:42:44;13.80;;;7.70;;
76896;SDS011;65856;52.178;21.176;2023-09-19T06:45:13;8.50;;;7.40;;
76896;SDS011;65856;52.178;21.176;2023-09-19T06:47:47;12.50;;;7.70;;
76896;SDS011;65856;52.178;21.176;2023-09-19T06:52:43;13.10;;;7.70;;
76896;SDS011;65856;52.178;21.176;2023-09-19T06:55:10;12.80;;;7.70;;
76896;SDS011;65856;52.178;21.176;2023-09-19T06:57:38;11.00;;;8.10;;
76896;SDS011;65856;52.178;21.176;2023-09-19T07:00:06;10.40;;;7.60;;
76896;SDS011;65856;52.178;21.176;2023-09-19T07:02:54;9.60;;;7.20;;
76896;SDS011;65856;52.178;21.176;2023-09-19T07:05:26;10.90;;;7.60;;
76896;SDS011;65856;52.178;21.176;2023-09-19T07:08:01;11.40;;;8.00;;
76896;SDS011;65856;52.178;21.176;2023-09-19T07:10:27;12.80;;;7.50;;
76896;SDS011;65856;52.178;21.176;2023-09-19T07:13:06;12.30;;;7.90;;
76896;SDS011;65856;52.178;21.176;2023-09-19T07:15:36;14.30;;;7.80;;
76896;SDS011;65856;52.178;21.176;2023-09-19T07:18:07;10.90;;;7.70;;
76896;SDS011;65856;52.178;21.176;2023-09-19T07:20:36;11.00;;;8.70;;
76896;SDS011;65856;52.178;21.176;2023-09-19T07:23:02;12.60;;;7.50;;
76896;SDS011;65856;52.178;21.176;2023-09-19T07:25:28;13.30;;;7.60;;
76896;SDS011;65856;52.178;21.176;2023-09-19T07:27:58;13.20;;;7.40;;
76896;SDS011;65856;52.178;21.176;2023-09-19T07:30:25;15.30;;;8.40;;
76896;SDS011;65856;52.178;21.176;2023-09-19T07:32:53;11.90;;;7.80;;
76896;SDS011;65856;52.178;21.176;2023-09-19T07:35:19;11.20;;;7.80;;
76896;SDS011;65856;52.178;21.176;2023-09-19T07:37:49;11.20;;;7.80;;
76896;SDS011;65856;52.178;21.176;2023-09-19T07:40:19;9.60;;;7.10;;
76896;SDS011;65856;52.178;21.176;2023-09-19T07:42:45;10.50;;;7.50;;
76896;SDS011;65856;52.178;21.176;2023-09-19T07:45:12;9.30;;;7.80;;
76896;SDS011;65856;52.178;21.176;2023-09-19T07:47:45;11.90;;;8.10;;
76896;SDS011;65856;52.178;21.176;2023-09-19T07:50:13;13.20;;;7.80;;
76896;SDS011;65856;52.178;21.176;2023-09-19T07:52:41;11.10;;;7.60;;
76896;SDS011;65856;52.178;21.176;2023-09-19T07:55:06;10.70;;;7.50;;
76896;SDS011;65856;52.178;21.176;2023-09-19T07:57:36;9.60;;;7.90;;
76896;SDS011;65856;52.178;21.176;2023-09-19T08:00:02;10.10;;;7.60;;
76896;SDS011;65856;52.178;21.176;2023-09-19T08:02:36;12.10;;;7.90;;
76896;SDS011;65856;52.178;21.176;2023-09-19T08:05:05;15.60;;;8.20;;
76896;SDS011;65856;52.178;21.176;2023-09-19T08:07:39;10.70;;;7.80;;
76896;SDS011;65856;52.178;21.176;2023-09-19T08:12:36;13.70;;;7.90;;
76896;SDS011;65856;52.178;21.176;2023-09-19T08:15:03;9.80;;;8.50;;
76896;SDS011;65856;52.178;21.176;2023-09-19T08:17:33;12.00;;;8.30;;
76896;SDS011;65856;52.178;21.176;2023-09-19T08:20:00;13.70;;;8.20;;
76896;SDS011;65856;52.178;21.176;2023-09-19T08:22:26;12.00;;;8.50;;
76896;SDS011;65856;52.178;21.176;2023-09-19T08:24:52;11.90;;;9.20;;
76896;SDS011;65856;52.178;21.176;2023-09-19T08:27:17;15.00;;;9.30;;
76896;SDS011;65856;52.178;21.176;2023-09-19T08:29:44;11.90;;;9.30;;
76896;SDS011;65856;52.178;21.176;2023-09-19T08:32:10;13.70;;;9.20;;
76896;SDS011;65856;52.178;21.176;2023-09-19T08:34:36;12.10;;;8.40;;
76896;SDS011;65856;52.178;21.176;2023-09-19T08:37:03;14.00;;;8.80;;
76896;SDS011;65856;52.178;21.176;2023-09-19T08:39:29;12.10;;;8.60;;
76896;SDS011;65856;52.178;21.176;2023-09-19T08:41:59;13.90;;;9.20;;
76896;SDS011;65856;52.178;21.176;2023-09-19T08:44:26;14.10;;;10.20;;
76896;SDS011;65856;52.178;21.176;2023-09-19T08:47:10;15.20;;;10.70;;
76896;SDS011;65856;52.178;21.176;2023-09-19T08:50:02;15.30;;;9.70;;
76896;SDS011;65856;52.178;21.176;2023-09-19T08:52:43;14.60;;;9.70;;
76896;SDS011;65856;52.178;21.176;2023-09-19T08:55:13;16.10;;;11.00;;
76896;SDS011;65856;52.178;21.176;2023-09-19T08:57:46;17.10;;;10.20;;
76896;SDS011;65856;52.178;21.176;2023-09-19T09:00:15;14.80;;;10.80;;
76896;SDS011;65856;52.178;21.176;2023-09-19T09:02:46;14.30;;;9.80;;
76896;SDS011;65856;52.178;21.176;2023-09-19T09:05:12;15.40;;;10.20;;
76896;SDS011;65856;52.178;21.176;2023-09-19T09:07:40;16.10;;;10.40;;
76896;SDS011;65856;52.178;21.176;2023-09-19T09:10:07;13.70;;;10.70;;
76896;SDS011;65856;52.178;21.176;2023-09-19T09:12:34;12.00;;;10.50;;
76896;SDS011;65856;52.178;21.176;2023-09-19T09:15:06;12.20;;;8.80;;
76896;SDS011;65856;52.178;21.176;2023-09-19T09:17:34;14.60;;;10.50;;
76896;SDS011;65856;52.178;21.176;2023-09-19T09:20:00;11.70;;;9.80;;
76896;SDS011;65856;52.178;21.176;2023-09-19T09:22:25;15.80;;;10.50;;
76896;SDS011;65856;52.178;21.176;2023-09-19T09:24:58;15.20;;;10.30;;
76896;SDS011;65856;52.178;21.176;2023-09-19T09:27:24;13.60;;;10.20;;
76896;SDS011;65856;52.178;21.176;2023-09-19T09:29:51;12.20;;;9.50;;
76896;SDS011;65856;52.178;21.176;2023-09-19T09:32:24;11.80;;;9.50;;
76896;SDS011;65856;52.178;21.176;2023-09-19T09:34:58;12.00;;;9.00;;
76896;SDS011;65856;52.178;21.176;2023-09-19T09:37:26;12.10;;;9.60;;
76896;SDS011;65856;52.178;21.176;2023-09-19T09:42:39;11.60;;;9.00;;
76896;SDS011;65856;52.178;21.176;2023-09-19T09:45:19;12.80;;;8.70;;
76896;SDS011;65856;52.178;21.176;2023-09-19T09:48:03;10.70;;;8.20;;
76896;SDS011;65856;52.178;21.176;2023-09-19T09:50:46;11.70;;;8.00;;
76896;SDS011;65856;52.178;21.176;2023-09-19T09:53:29;12.30;;;8.20;;
76896;SDS011;65856;52.178;21.176;2023-09-19T09:55:58;11.90;;;7.90;;
76896;SDS011;65856;52.178;21.176;2023-09-19T09:58:25;12.10;;;8.10;;
76896;SDS011;65856;52.178;21.176;2023-09-19T10:00:55;9.70;;;8.10;;
76896;SDS011;65856;52.178;21.176;2023-09-19T10:03:32;11.70;;;8.10;;
76896;SDS011;65856;52.178;21.176;2023-09-19T10:06:04;10.30;;;7.90;;
76896;SDS011;65856;52.178;21.176;2023-09-19T10:08:36;10.00;;;7.00;;
76896;SDS011;65856;52.178;21.176;2023-09-19T10:11:15;8.30;;;5.90;;
76896;SDS011;65856;52.178;21.176;2023-09-19T10:13:42;8.10;;;5.40;;
76896;SDS011;65856;52.178;21.176;2023-09-19T10:16:11;9.20;;;5.00;;
76896;SDS011;65856;52.178;21.176;2023-09-19T10:18:40;8.10;;;5.20;;
76896;SDS011;65856;52.178;21.176;2023-09-19T10:21:09;10.20;;;5.10;;
76896;SDS011;65856;52.178;21.176;2023-09-19T10:23:36;11.10;;;4.20;;
76896;SDS011;65856;52.178;21.176;2023-09-19T10:26:05;14.20;;;4.30;;
76896;SDS011;65856;52.178;21.176;2023-09-19T10:28:32;11.90;;;3.90;;
76896;SDS011;65856;52.178;21.176;2023-09-19T10:31:00;9.20;;;4.50;;
76896;SDS011;65856;52.178;21.176;2023-09-19T10:33:34;9.90;;;4.70;;
76896;SDS011;65856;52.178;21.176;2023-09-19T10:36:04;10.80;;;4.40;;
76896;SDS011;65856;52.178;21.176;2023-09-19T10:38:31;7.80;;;4.00;;
76896;SDS011;65856;52.178;21.176;2023-09-19T10:40:59;9.50;;;4.10;;
76896;SDS011;65856;52.178;21.176;2023-09-19T10:43:32;7.20;;;3.80;;
76896;SDS011;65856;52.178;21.176;2023-09-19T10:46:02;7.30;;;3.70;;
76896;SDS011;65856;52.178;21.176;2023-09-19T10:48:33;6.90;;;3.70;;
76896;SDS011;65856;52.178;21.176;2023-09-19T10:53:51;6.10;;;3.80;;
76896;SDS011;65856;52.178;21.176;2023-09-19T10:56:26;6.20;;;3.60;;
76896;SDS011;65856;52.178;21.176;2023-09-19T10:59:13;6.00;;;3.90;;
76896;SDS011;65856;52.178;21.176;2023-09-19T11:01:51;10.40;;;4.40;;
76896;SDS011;65856;52.178;21.176;2023-09-19T11:04:29;9.10;;;4.40;;
76896;SDS011;65856;52.178;21.176;2023-09-19T11:07:08;6.70;;;4.40;;
76896;SDS011;65856;52.178;21.176;2023-09-19T11:14:58;6.20;;;4.80;;
76896;SDS011;65856;52.178;21.176;2023-09-19T11:17:31;6.00;;;4.40;;
76896;SDS011;65856;52.178;21.176;2023-09-19T11:30:44;7.10;;;4.90;;
76896;SDS011;65856;52.178;21.176;2023-09-19T11:33:32;11.10;;;5.70;;
76896;SDS011;65856;52.178;21.176;2023-09-19T11:36:08;7.80;;;5.50;;
76896;SDS011;65856;52.178;21.176;2023-09-19T11:46:29;10.10;;;6.50;;
76896;SDS011;65856;52.178;21.176;2023-09-19T11:49:08;10.60;;;6.50;;
76896;SDS011;65856;52.178;21.176;2023-09-19T11:51:57;9.00;;;6.20;;
76896;SDS011;65856;52.178;21.176;2023-09-19T11:54:31;10.40;;;7.10;;
76896;SDS011;65856;52.178;21.176;2023-09-19T11:56:58;9.70;;;7.00;;
76896;SDS011;65856;52.178;21.176;2023-09-19T11:59:30;9.60;;;7.00;;
76896;SDS011;65856;52.178;21.176;2023-09-19T12:01:57;11.70;;;7.00;;
76896;SDS011;65856;52.178;21.176;2023-09-19T12:04:40;11.80;;;6.90;;
76896;SDS011;65856;52.178;21.176;2023-09-19T12:07:12;10.70;;;7.00;;
76896;SDS011;65856;52.178;21.176;2023-09-19T12:09:49;10.00;;;6.80;;
76896;SDS011;65856;52.178;21.176;2023-09-19T12:12:29;8.10;;;6.30;;
76896;SDS011;65856;52.178;21.176;2023-09-19T12:14:56;9.20;;;6.10;;
76896;SDS011;65856;52.178;21.176;2023-09-19T12:17:34;9.40;;;6.40;;
76896;SDS011;65856;52.178;21.176;2023-09-19T12:20:01;12.60;;;6.20;;
76896;SDS011;65856;52.178;21.176;2023-09-19T12:22:45;10.40;;;6.40;;
76896;SDS011;65856;52.178;21.176;2023-09-19T12:25:13;10.00;;;6.60;;
76896;SDS011;65856;52.178;21.176;2023-09-19T12:27:48;10.10;;;6.70;;
76896;SDS011;65856;52.178;21.176;2023-09-19T12:30:18;9.10;;;6.70;;
76896;SDS011;65856;52.178;21.176;2023-09-19T12:32:48;11.60;;;7.10;;
76896;SDS011;65856;52.178;21.176;2023-09-19T12:35:31;10.90;;;7.10;;
76896;SDS011;65856;52.178;21.176;2023-09-19T12:38:00;8.60;;;6.90;;
76896;SDS011;65856;52.178;21.176;2023-09-19T12:40:26;9.10;;;6.30;;
76896;SDS011;65856;52.178;21.176;2023-09-19T12:42:58;10.00;;;6.70;;
76896;SDS011;65856;52.178;21.176;2023-09-19T12:45:27;8.40;;;6.50;;
76896;SDS011;65856;52.178;21.176;2023-09-19T12:51:05;8.10;;;5.50;;
76896;SDS011;65856;52.178;21.176;2023-09-19T12:53:36;9.60;;;5.40;;
76896;SDS011;65856;52.178;21.176;2023-09-19T12:56:08;6.50;;;5.20;;
76896;SDS011;65856;52.178;21.176;2023-09-19T12:58:58;7.20;;;5.60;;
76896;SDS011;65856;52.178;21.176;2023-09-19T13:01:26;7.90;;;5.10;;
76896;SDS011;65856;52.178;21.176;2023-09-19T13:04:22;8.30;;;5.40;;
76896;SDS011;65856;52.178;21.176;2023-09-19T13:06:57;8.40;;;5.40;;
76896;SDS011;65856;52.178;21.176;2023-09-19T13:09:27;7.70;;;5.80;;
76896;SDS011;65856;52.178;21.176;2023-09-19T13:12:04;7.90;;;5.80;;
76896;SDS011;65856;52.178;21.176;2023-09-19T13:15:10;8.10;;;5.70;;
76896;SDS011;65856;52.178;21.176;2023-09-19T13:17:43;7.90;;;5.90;;
76896;SDS011;65856;52.178;21.176;2023-09-19T13:20:30;8.90;;;5.80;;
76896;SDS011;65856;52.178;21.176;2023-09-19T13:22:57;10.50;;;5.90;;
76896;SDS011;65856;52.178;21.176;2023-09-19T13:25:33;10.10;;;6.40;;
76896;SDS011;65856;52.178;21.176;2023-09-19T13:28:00;9.10;;;5.40;;
76896;SDS011;65856;52.178;21.176;2023-09-19T13:30:30;8.20;;;5.30;;
76896;SDS011;65856;52.178;21.176;2023-09-19T13:33:10;8.20;;;5.50;;
76896;SDS011;65856;52.178;21.176;2023-09-19T13:35:38;6.80;;;5.30;;
76896;SDS011;65856;52.178;21.176;2023-09-19T13:38:06;9.80;;;5.30;;
76896;SDS011;65856;52.178;21.176;2023-09-19T13:40:34;6.20;;;4.90;;
76896;SDS011;65856;52.178;21.176;2023-09-19T13:43:01;10.40;;;5.30;;
76896;SDS011;65856;52.178;21.176;2023-09-19T13:45:26;7.10;;;5.00;;
76896;SDS011;65856;52.178;21.176;2023-09-19T13:47:52;7.70;;;5.40;;
76896;SDS011;65856;52.178;21.176;2023-09-19T13:50:18;8.60;;;5.80;;
76896;SDS011;65856;52.178;21.176;2023-09-19T13:52:49;8.00;;;5.50;;
76896;SDS011;65856;52.178;21.176;2023-09-19T13:55:19;7.50;;;6.10;;
76896;SDS011;65856;52.178;21.176;2023-09-19T13:57:46;5.90;;;5.30;;
76896;SDS011;65856;52.178;21.176;2023-09-19T14:00:16;9.70;;;5.30;;
76896;SDS011;65856;52.178;21.176;2023-09-19T14:02:42;9.00;;;5.50;;
76896;SDS011;65856;52.178;21.176;2023-09-19T14:05:11;11.50;;;5.50;;
76896;SDS011;65856;52.178;21.176;2023-09-19T14:07:42;9.20;;;5.40;;
76896;SDS011;65856;52.178;21.176;2023-09-19T14:10:10;10.60;;;5.30;;
76896;SDS011;65856;52.178;21.176;2023-09-19T14:12:38;11.20;;;5.70;;
76896;SDS011;65856;52.178;21.176;2023-09-19T14:15:10;10.60;;;5.50;;
76896;SDS011;65856;52.178;21.176;2023-09-19T14:17:38;9.00;;;5.30;;
76896;SDS011;65856;52.178;21.176;2023-09-19T14:20:05;8.60;;;5.20;;
76896;SDS011;65856;52.178;21.176;2023-09-19T14:22:32;7.10;;;5.60;;
76896;SDS011;65856;52.178;21.176;2023-09-19T14:24:58;9.10;;;5.90;;
76896;SDS011;65856;52.178;21.176;2023-09-19T14:27:24;7.90;;;5.40;;
76896;SDS011;65856;52.178;21.176;2023-09-19T14:29:50;7.90;;;5.50;;
76896;SDS011;65856;52.178;21.176;2023-09-19T14:32:16;8.40;;;5.60;;
76896;SDS011;65856;52.178;21.176;2023-09-19T14:34:43;11.20;;;6.00;;
76896;SDS011;65856;52.178;21.176;2023-09-19T14:37:09;9.00;;;5.80;;
76896;SDS011;65856;52.178;21.176;2023-09-19T14:39:36;8.60;;;5.90;;
76896;SDS011;65856;52.178;21.176;2023-09-19T14:42:04;9.10;;;5.70;;
76896;SDS011;65856;52.178;21.176;2023-09-19T14:44:30;8.00;;;5.40;;
76896;SDS011;65856;52.178;21.176;2023-09-19T14:46:55;12.80;;;5.90;;
76896;SDS011;65856;52.178;21.176;2023-09-19T14:49:21;7.90;;;5.70;;
76896;SDS011;65856;52.178;21.176;2023-09-19T14:51:46;10.00;;;5.80;;
76896;SDS011;65856;52.178;21.176;2023-09-19T14:54:17;8.80;;;6.10;;
76896;SDS011;65856;52.178;21.176;2023-09-19T14:56:44;8.80;;;6.00;;
76896;SDS011;65856;52.178;21.176;2023-09-19T14:59:10;9.50;;;6.50;;
76896;SDS011;65856;52.178;21.176;2023-09-19T15:01:36;9.00;;;6.20;;
76896;SDS011;65856;52.178;21.176;2023-09-19T15:04:02;11.00;;;6.40;;
76896;SDS011;65856;52.178;21.176;2023-09-19T15:06:28;12.30;;;6.10;;
76896;SDS011;65856;52.178;21.176;2023-09-19T15:08:53;10.50;;;7.10;;
76896;SDS011;65856;52.178;21.176;2023-09-19T15:11:19;10.60;;;7.90;;
76896;SDS011;65856;52.178;21.176;2023-09-19T15:13:47;9.90;;;7.50;;
76896;SDS011;65856;52.178;21.176;2023-09-19T15:16:16;12.00;;;7.30;;
76896;SDS011;65856;52.178;21.176;2023-09-19T15:18:43;10.70;;;7.60;;
76896;SDS011;65856;52.178;21.176;2023-09-19T15:21:13;14.00;;;8.20;;
76896;SDS011;65856;52.178;21.176;2023-09-19T15:23:41;11.50;;;7.50;;
76896;SDS011;65856;52.178;21.176;2023-09-19T15:26:09;10.00;;;7.20;;
76896;SDS011;65856;52.178;21.176;2023-09-19T15:28:37;8.50;;;6.70;;
76896;SDS011;65856;52.178;21.176;2023-09-19T15:31:09;11.00;;;6.00;;
76896;SDS011;65856;52.178;21.176;2023-09-19T15:33:37;9.40;;;6.40;;
76896;SDS011;65856;52.178;21.176;2023-09-19T15:41:33;8.20;;;6.20;;